Terminal Aerodrome Forecast
Issued by NWS

Home | Current Version | Previous Version | Text Only | Print | Product List | Glossary On
Versions: 1 2 3 4 5 6 7 8 9 10 11 12 13 14 15 16 17 18 19 20 21 22 23 24 25 26 27 28 29 30 31 32 33 34 35 36 37 38 39 40 41 42 43 44 45 46 47 48 49 50
170
FTUS41 KRNK 250025 AAA
TAFLWB
TAF AMD
KLWB 250025Z 2500/2524 11008KT 6SM -SHRA SCT015 OVC060
      TEMPO 2500/2502 2SM SHRA BR OVC015
     FM250600 00000KT 4SM SHRA OVC008
     FM251000 VRB03KT 5SM BR VCSH OVC020
     FM251500 24007KT P6SM VCSH BKN045
     FM252100 24008KT P6SM VCSH OVC030=

USA.gov is the U.S. government's official web portal to all federal, state and local government web resources and services.